sensor_id;sensor_type;location;lat;lon;timestamp;pressure;altitude;pressure_sealevel;temperature;humidity
3096;BME280;1558;42.700;23.360;2024-03-06T00:00:47;95088.66;;;5.80;100.00
3096;BME280;1558;42.700;23.360;2024-03-06T00:03:15;95073.16;;;5.69;100.00
3096;BME280;1558;42.700;23.360;2024-03-06T00:05:43;95058.44;;;5.49;100.00
3096;BME280;1558;42.700;23.360;2024-03-06T00:08:13;95082.13;;;5.64;100.00
3096;BME280;1558;42.700;23.360;2024-03-06T00:10:41;95092.22;;;5.67;100.00
3096;BME280;1558;42.700;23.360;2024-03-06T00:13:09;95089.84;;;5.66;100.00
3096;BME280;1558;42.700;23.360;2024-03-06T00:15:37;95085.81;;;5.77;100.00
3096;BME280;1558;42.700;23.360;2024-03-06T00:18:06;95045.34;;;5.47;100.00
3096;BME280;1558;42.700;23.360;2024-03-06T00:20:34;95082.00;;;5.69;100.00
3096;BME280;1558;42.700;23.360;2024-03-06T00:23:02;95083.38;;;5.67;100.00
3096;BME280;1558;42.700;23.360;2024-03-06T00:25:32;95073.97;;;5.69;100.00
3096;BME280;1558;42.700;23.360;2024-03-06T00:28:01;95081.16;;;5.60;100.00
3096;BME280;1558;42.700;23.360;2024-03-06T00:30:29;95063.59;;;5.45;100.00
3096;BME280;1558;42.700;23.360;2024-03-06T00:32:57;95089.84;;;5.66;100.00
3096;BME280;1558;42.700;23.360;2024-03-06T00:35:26;95083.88;;;5.69;100.00
3096;BME280;1558;42.700;23.360;2024-03-06T00:37:55;95042.19;;;5.45;100.00
3096;BME280;1558;42.700;23.360;2024-03-06T00:40:23;95087.34;;;5.69;100.00
3096;BME280;1558;42.700;23.360;2024-03-06T00:42:53;95088.75;;;5.67;100.00
3096;BME280;1558;42.700;23.360;2024-03-06T00:45:21;95064.91;;;5.57;100.00
3096;BME280;1558;42.700;23.360;2024-03-06T00:47:49;95083.94;;;5.77;100.00
3096;BME280;1558;42.700;23.360;2024-03-06T00:50:18;95055.59;;;5.54;100.00
3096;BME280;1558;42.700;23.360;2024-03-06T00:52:49;95079.78;;;5.71;100.00
3096;BME280;1558;42.700;23.360;2024-03-06T00:55:17;95082.22;;;5.59;100.00
3096;BME280;1558;42.700;23.360;2024-03-06T00:57:45;95096.34;;;5.73;100.00
3096;BME280;1558;42.700;23.360;2024-03-06T01:00:16;95096.41;;;5.60;100.00
3096;BME280;1558;42.700;23.360;2024-03-06T01:02:44;95093.25;;;5.58;100.00
3096;BME280;1558;42.700;23.360;2024-03-06T01:05:12;95088.50;;;5.55;100.00
3096;BME280;1558;42.700;23.360;2024-03-06T01:07:41;95091.13;;;5.46;100.00
3096;BME280;1558;42.700;23.360;2024-03-06T01:10:09;95087.09;;;5.35;100.00
3096;BME280;1558;42.700;23.360;2024-03-06T01:12:39;95098.31;;;5.37;100.00
3096;BME280;1558;42.700;23.360;2024-03-06T01:15:08;95089.00;;;5.34;100.00
3096;BME280;1558;42.700;23.360;2024-03-06T01:17:38;95093.31;;;5.44;100.00
3096;BME280;1558;42.700;23.360;2024-03-06T01:20:07;95080.31;;;5.29;100.00
3096;BME280;1558;42.700;23.360;2024-03-06T01:22:36;95085.97;;;5.27;100.00
3096;BME280;1558;42.700;23.360;2024-03-06T01:25:05;95085.53;;;5.34;100.00
3096;BME280;1558;42.700;23.360;2024-03-06T01:27:34;95094.59;;;5.46;100.00
3096;BME280;1558;42.700;23.360;2024-03-06T01:30:02;95101.72;;;5.51;100.00
3096;BME280;1558;42.700;23.360;2024-03-06T01:32:30;95097.44;;;5.50;100.00
3096;BME280;1558;42.700;23.360;2024-03-06T01:35:01;95104.50;;;5.46;100.00
3096;BME280;1558;42.700;23.360;2024-03-06T01:37:29;95095.00;;;5.40;100.00
3096;BME280;1558;42.700;23.360;2024-03-06T01:39:58;95099.69;;;5.34;100.00
3096;BME280;1558;42.700;23.360;2024-03-06T01:42:26;95085.28;;;5.22;100.00
3096;BME280;1558;42.700;23.360;2024-03-06T01:44:54;95069.88;;;5.05;100.00
3096;BME280;1558;42.700;23.360;2024-03-06T01:47:22;95096.78;;;5.09;100.00
3096;BME280;1558;42.700;23.360;2024-03-06T01:49:51;95095.66;;;4.88;100.00
3096;BME280;1558;42.700;23.360;2024-03-06T01:52:22;95065.38;;;4.56;100.00
3096;BME280;1558;42.700;23.360;2024-03-06T01:54:50;95037.69;;;4.39;100.00
3096;BME280;1558;42.700;23.360;2024-03-06T01:57:19;95073.38;;;4.43;100.00
3096;BME280;1558;42.700;23.360;2024-03-06T01:59:49;95091.06;;;4.39;100.00
3096;BME280;1558;42.700;23.360;2024-03-06T02:02:17;95103.22;;;4.31;100.00
3096;BME280;1558;42.700;23.360;2024-03-06T02:04:46;95107.88;;;4.26;100.00
3096;BME280;1558;42.700;23.360;2024-03-06T02:07:14;95107.47;;;4.19;100.00
3096;BME280;1558;42.700;23.360;2024-03-06T02:09:45;95114.66;;;4.04;100.00
3096;BME280;1558;42.700;23.360;2024-03-06T02:12:13;95120.78;;;3.91;100.00
3096;BME280;1558;42.700;23.360;2024-03-06T02:14:42;95126.00;;;3.83;100.00
3096;BME280;1558;42.700;23.360;2024-03-06T02:17:11;95122.91;;;3.76;100.00
3096;BME280;1558;42.700;23.360;2024-03-06T02:19:39;95126.25;;;3.68;100.00
3096;BME280;1558;42.700;23.360;2024-03-06T02:22:09;95123.97;;;3.61;100.00
3096;BME280;1558;42.700;23.360;2024-03-06T02:24:43;95129.19;;;3.66;100.00
3096;BME280;1558;42.700;23.360;2024-03-06T02:27:12;95118.50;;;3.53;100.00
3096;BME280;1558;42.700;23.360;2024-03-06T02:29:40;95133.94;;;3.56;100.00
3096;BME280;1558;42.700;23.360;2024-03-06T02:32:09;95137.16;;;3.53;100.00
3096;BME280;1558;42.700;23.360;2024-03-06T02:34:37;95133.69;;;3.52;100.00
3096;BME280;1558;42.700;23.360;2024-03-06T02:37:05;95125.09;;;3.41;100.00
3096;BME280;1558;42.700;23.360;2024-03-06T02:39:35;95143.00;;;3.55;100.00
3096;BME280;1558;42.700;23.360;2024-03-06T02:42:03;95144.78;;;3.59;100.00
3096;BME280;1558;42.700;23.360;2024-03-06T02:44:31;95145.19;;;3.66;100.00
3096;BME280;1558;42.700;23.360;2024-03-06T02:47:00;95134.84;;;3.65;100.00
3096;BME280;1558;42.700;23.360;2024-03-06T02:49:28;95141.97;;;3.69;100.00
3096;BME280;1558;42.700;23.360;2024-03-06T02:51:56;95139.59;;;3.68;100.00
3096;BME280;1558;42.700;23.360;2024-03-06T02:54:27;95137.72;;;3.68;100.00
3096;BME280;1558;42.700;23.360;2024-03-06T02:56:57;95134.19;;;3.73;100.00
3096;BME280;1558;42.700;23.360;2024-03-06T02:59:25;95143.06;;;3.68;100.00
3096;BME280;1558;42.700;23.360;2024-03-06T03:01:53;95128.72;;;3.64;100.00
3096;BME280;1558;42.700;23.360;2024-03-06T03:04:22;95135.50;;;3.57;100.00
3096;BME280;1558;42.700;23.360;2024-03-06T03:06:50;95137.66;;;3.55;100.00
3096;BME280;1558;42.700;23.360;2024-03-06T03:09:18;95137.66;;;3.55;100.00
3096;BME280;1558;42.700;23.360;2024-03-06T03:11:47;95140.13;;;3.51;100.00
3096;BME280;1558;42.700;23.360;2024-03-06T03:14:16;95146.53;;;3.50;100.00
3096;BME280;1558;42.700;23.360;2024-03-06T03:16:45;95145.16;;;3.53;100.00
3096;BME280;1558;42.700;23.360;2024-03-06T03:19:13;95131.72;;;3.44;100.00
3096;BME280;1558;42.700;23.360;2024-03-06T03:21:43;95138.47;;;3.55;100.00
3096;BME280;1558;42.700;23.360;2024-03-06T03:24:11;95152.66;;;3.51;100.00
3096;BME280;1558;42.700;23.360;2024-03-06T03:26:39;95143.59;;;3.52;100.00
3096;BME280;1558;42.700;23.360;2024-03-06T03:29:09;95147.25;;;3.56;100.00
3096;BME280;1558;42.700;23.360;2024-03-06T03:31:38;95149.91;;;3.56;100.00
3096;BME280;1558;42.700;23.360;2024-03-06T03:34:07;95153.31;;;3.61;100.00
3096;BME280;1558;42.700;23.360;2024-03-06T03:36:40;95160.44;;;3.66;100.00
3096;BME280;1558;42.700;23.360;2024-03-06T03:39:10;95129.84;;;3.45;100.00
3096;BME280;1558;42.700;23.360;2024-03-06T03:41:43;95155.69;;;3.44;100.00
3096;BME280;1558;42.700;23.360;2024-03-06T03:44:13;95163.31;;;3.51;100.00
3096;BME280;1558;42.700;23.360;2024-03-06T03:46:43;95158.22;;;3.54;100.00
3096;BME280;1558;42.700;23.360;2024-03-06T03:49:10;95160.44;;;3.66;100.00
3096;BME280;1558;42.700;23.360;2024-03-06T03:51:41;95161.03;;;3.76;100.00
3096;BME280;1558;42.700;23.360;2024-03-06T03:54:10;95155.22;;;3.74;100.00
3096;BME280;1558;42.700;23.360;2024-03-06T03:56:39;95155.53;;;3.73;100.00
3096;BME280;1558;42.700;23.360;2024-03-06T03:59:15;95165.00;;;3.79;100.00
3096;BME280;1558;42.700;23.360;2024-03-06T04:01:46;95159.25;;;3.72;100.00
3096;BME280;1558;42.700;23.360;2024-03-06T04:04:14;95167.63;;;3.65;100.00
3096;BME280;1558;42.700;23.360;2024-03-06T04:06:42;95168.94;;;3.68;100.00
3096;BME280;1558;42.700;23.360;2024-03-06T04:09:12;95155.44;;;3.59;100.00
3096;BME280;1558;42.700;23.360;2024-03-06T04:11:41;95161.19;;;3.66;100.00
3096;BME280;1558;42.700;23.360;2024-03-06T04:14:09;95131.97;;;3.42;100.00
3096;BME280;1558;42.700;23.360;2024-03-06T04:16:38;95177.00;;;3.63;100.00
3096;BME280;1558;42.700;23.360;2024-03-06T04:19:07;95180.16;;;3.65;100.00
3096;BME280;1558;42.700;23.360;2024-03-06T04:21:40;95178.56;;;3.64;100.00
3096;BME280;1558;42.700;23.360;2024-03-06T04:24:09;95177.56;;;3.60;100.00
3096;BME280;1558;42.700;23.360;2024-03-06T04:26:37;95184.09;;;3.54;100.00
3096;BME280;1558;42.700;23.360;2024-03-06T04:29:05;95027.44;;;2.44;100.00
3096;BME280;1558;42.700;23.360;2024-03-06T04:31:35;95185.66;;;3.55;100.00
3096;BME280;1558;42.700;23.360;2024-03-06T04:34:03;95167.84;;;3.50;100.00
3096;BME280;1558;42.700;23.360;2024-03-06T04:36:33;95190.47;;;3.71;100.00
3096;BME280;1558;42.700;23.360;2024-03-06T04:39:02;95188.09;;;3.70;100.00
3096;BME280;1558;42.700;23.360;2024-03-06T04:41:34;95197.72;;;3.84;100.00
3096;BME280;1558;42.700;23.360;2024-03-06T04:44:03;95192.59;;;3.88;100.00
3096;BME280;1558;42.700;23.360;2024-03-06T04:46:31;95212.78;;;3.94;100.00
3096;BME280;1558;42.700;23.360;2024-03-06T04:48:59;95203.47;;;3.91;100.00
3096;BME280;1558;42.700;23.360;2024-03-06T04:51:28;95202.53;;;4.01;100.00
3096;BME280;1558;42.700;23.360;2024-03-06T04:53:58;94986.53;;;2.58;100.00
3096;BME280;1558;42.700;23.360;2024-03-06T04:56:26;95203.31;;;4.01;100.00
3096;BME280;1558;42.700;23.360;2024-03-06T04:58:59;95184.81;;;3.91;100.00
3096;BME280;1558;42.700;23.360;2024-03-06T05:01:30;95212.09;;;4.02;100.00
3096;BME280;1558;42.700;23.360;2024-03-06T05:03:58;95207.06;;;4.00;100.00
3096;BME280;1558;42.700;23.360;2024-03-06T05:06:44;95211.34;;;4.01;100.00
3096;BME280;1558;42.700;23.360;2024-03-06T05:09:30;95208.25;;;3.94;100.00
3096;BME280;1558;42.700;23.360;2024-03-06T05:12:16;95213.13;;;4.06;100.00
3096;BME280;1558;42.700;23.360;2024-03-06T05:15:02;95198.22;;;4.19;100.00
3096;BME280;1558;42.700;23.360;2024-03-06T05:17:47;95217.34;;;4.39;100.00
3096;BME280;1558;42.700;23.360;2024-03-06T05:20:33;95219.94;;;4.71;100.00
3096;BME280;1558;42.700;23.360;2024-03-06T05:23:18;95213.91;;;5.07;100.00
3096;BME280;1558;42.700;23.360;2024-03-06T05:26:06;95198.53;;;5.26;100.00
3096;BME280;1558;42.700;23.360;2024-03-06T05:28:52;95206.69;;;5.57;100.00
3096;BME280;1558;42.700;23.360;2024-03-06T05:31:39;95213.66;;;5.80;100.00
3096;BME280;1558;42.700;23.360;2024-03-06T05:34:26;95218.22;;;6.01;100.00
3096;BME280;1558;42.700;23.360;2024-03-06T05:37:12;95201.69;;;5.99;100.00
3096;BME280;1558;42.700;23.360;2024-03-06T05:39:58;95227.03;;;6.16;100.00
3096;BME280;1558;42.700;23.360;2024-03-06T05:42:45;95229.03;;;6.10;100.00
3096;BME280;1558;42.700;23.360;2024-03-06T05:45:31;95228.94;;;6.24;100.00
3096;BME280;1558;42.700;23.360;2024-03-06T05:48:18;95237.81;;;6.33;100.00
3096;BME280;1558;42.700;23.360;2024-03-06T05:51:04;95235.72;;;6.52;100.00
3096;BME280;1558;42.700;23.360;2024-03-06T05:53:50;95240.38;;;6.38;100.00
3096;BME280;1558;42.700;23.360;2024-03-06T05:56:35;95239.06;;;6.27;100.00
3096;BME280;1558;42.700;23.360;2024-03-06T05:59:24;95242.31;;;6.01;100.00
3096;BME280;1558;42.700;23.360;2024-03-06T06:01:52;95236.56;;;5.72;100.00
3096;BME280;1558;42.700;23.360;2024-03-06T06:04:20;95248.19;;;5.54;100.00
3096;BME280;1558;42.700;23.360;2024-03-06T06:06:48;95252.19;;;5.43;100.00
3096;BME280;1558;42.700;23.360;2024-03-06T06:09:17;95266.03;;;5.45;100.00
3096;BME280;1558;42.700;23.360;2024-03-06T06:11:45;95221.78;;;5.39;100.00
3096;BME280;1558;42.700;23.360;2024-03-06T06:14:16;95256.38;;;5.71;100.00
3096;BME280;1558;42.700;23.360;2024-03-06T06:16:47;95253.03;;;6.01;100.00
3096;BME280;1558;42.700;23.360;2024-03-06T06:19:15;95250.56;;;6.27;100.00
3096;BME280;1558;42.700;23.360;2024-03-06T06:21:43;95175.34;;;6.15;100.00
3096;BME280;1558;42.700;23.360;2024-03-06T06:24:11;95242.31;;;6.68;100.00
3096;BME280;1558;42.700;23.360;2024-03-06T06:26:41;95236.28;;;6.62;100.00
3096;BME280;1558;42.700;23.360;2024-03-06T06:29:11;95218.59;;;6.31;100.00
3096;BME280;1558;42.700;23.360;2024-03-06T06:31:44;95246.81;;;6.59;100.00
3096;BME280;1558;42.700;23.360;2024-03-06T06:34:21;95236.94;;;6.68;100.00
3096;BME280;1558;42.700;23.360;2024-03-06T06:37:10;95243.97;;;6.86;100.00
3096;BME280;1558;42.700;23.360;2024-03-06T06:42:25;95248.91;;;7.01;100.00
3096;BME280;1558;42.700;23.360;2024-03-06T06:44:54;95234.50;;;6.89;100.00
3096;BME280;1558;42.700;23.360;2024-03-06T06:47:29;95250.88;;;7.18;100.00
3096;BME280;1558;42.700;23.360;2024-03-06T06:50:11;95252.31;;;7.32;100.00
3096;BME280;1558;42.700;23.360;2024-03-06T06:52:41;95236.44;;;7.62;100.00
3096;BME280;1558;42.700;23.360;2024-03-06T06:55:09;95232.84;;;7.75;100.00
3096;BME280;1558;42.700;23.360;2024-03-06T06:57:39;95223.03;;;7.62;100.00
3096;BME280;1558;42.700;23.360;2024-03-06T07:00:08;95258.91;;;8.00;100.00
3096;BME280;1558;42.700;23.360;2024-03-06T07:02:38;95257.34;;;8.33;100.00
3096;BME280;1558;42.700;23.360;2024-03-06T07:05:10;95079.53;;;7.33;100.00
3096;BME280;1558;42.700;23.360;2024-03-06T07:07:38;95188.59;;;8.15;100.00
3096;BME280;1558;42.700;23.360;2024-03-06T07:10:07;95254.56;;;8.76;100.00
3096;BME280;1558;42.700;23.360;2024-03-06T07:12:36;95211.66;;;8.33;100.00
3096;BME280;1558;42.700;23.360;2024-03-06T07:15:05;95166.66;;;7.87;100.00
3096;BME280;1558;42.700;23.360;2024-03-06T07:17:34;95264.63;;;8.41;100.00
3096;BME280;1558;42.700;23.360;2024-03-06T07:20:03;95252.13;;;8.28;100.00
3096;BME280;1558;42.700;23.360;2024-03-06T07:22:34;95259.25;;;8.41;100.00
3096;BME280;1558;42.700;23.360;2024-03-06T07:25:03;95260.13;;;8.71;100.00
3096;BME280;1558;42.700;23.360;2024-03-06T07:27:32;95237.19;;;8.73;100.00
3096;BME280;1558;42.700;23.360;2024-03-06T07:30:01;95246.16;;;8.77;100.00
3096;BME280;1558;42.700;23.360;2024-03-06T07:32:32;95252.66;;;9.23;100.00
3096;BME280;1558;42.700;23.360;2024-03-06T07:35:00;95245.84;;;9.54;100.00
3096;BME280;1558;42.700;23.360;2024-03-06T07:37:28;95245.66;;;9.60;100.00
3096;BME280;1558;42.700;23.360;2024-03-06T07:39:58;95247.28;;;9.81;100.00
3096;BME280;1558;42.700;23.360;2024-03-06T07:42:26;95180.13;;;9.97;100.00
3096;BME280;1558;42.700;23.360;2024-03-06T07:44:54;95201.81;;;10.00;96.42
3096;BME280;1558;42.700;23.360;2024-03-06T07:47:23;95255.56;;;10.17;95.54
3096;BME280;1558;42.700;23.360;2024-03-06T07:49:51;95254.91;;;10.41;94.88
3096;BME280;1558;42.700;23.360;2024-03-06T07:52:19;95246.38;;;10.72;93.35
3096;BME280;1558;42.700;23.360;2024-03-06T07:54:47;95140.28;;;10.02;91.24
3096;BME280;1558;42.700;23.360;2024-03-06T07:57:17;95245.47;;;10.80;91.92
3096;BME280;1558;42.700;23.360;2024-03-06T07:59:45;95250.81;;;11.01;90.41
3096;BME280;1558;42.700;23.360;2024-03-06T08:02:13;95252.91;;;10.83;88.03
3096;BME280;1558;42.700;23.360;2024-03-06T08:04:42;95251.84;;;10.31;88.37
3096;BME280;1558;42.700;23.360;2024-03-06T08:07:10;95248.78;;;10.98;88.42
3096;BME280;1558;42.700;23.360;2024-03-06T08:09:38;95251.66;;;11.49;87.19
3096;BME280;1558;42.700;23.360;2024-03-06T08:12:07;95252.66;;;11.57;84.22
3096;BME280;1558;42.700;23.360;2024-03-06T08:14:37;95253.47;;;11.57;82.43
3096;BME280;1558;42.700;23.360;2024-03-06T08:17:05;95242.84;;;11.16;85.11
3096;BME280;1558;42.700;23.360;2024-03-06T08:19:33;95249.72;;;11.86;84.71
3096;BME280;1558;42.700;23.360;2024-03-06T08:22:02;95255.91;;;11.63;81.77
3096;BME280;1558;42.700;23.360;2024-03-06T08:24:32;95243.28;;;12.03;84.00
3096;BME280;1558;42.700;23.360;2024-03-06T08:27:01;95248.31;;;12.72;81.28
3096;BME280;1558;42.700;23.360;2024-03-06T08:29:30;95246.66;;;12.95;77.95
3096;BME280;1558;42.700;23.360;2024-03-06T08:31:59;95241.81;;;12.45;77.75
3096;BME280;1558;42.700;23.360;2024-03-06T08:34:28;95241.06;;;12.60;78.28
3096;BME280;1558;42.700;23.360;2024-03-06T08:36:56;95246.66;;;12.67;77.43
3096;BME280;1558;42.700;23.360;2024-03-06T08:39:24;95249.31;;;12.79;77.37
3096;BME280;1558;42.700;23.360;2024-03-06T08:41:52;95243.69;;;13.00;77.43
3096;BME280;1558;42.700;23.360;2024-03-06T08:44:21;95246.00;;;13.45;75.33
3096;BME280;1558;42.700;23.360;2024-03-06T08:46:49;95252.47;;;13.40;74.28
3096;BME280;1558;42.700;23.360;2024-03-06T08:49:19;95247.16;;;14.48;74.24
3096;BME280;1558;42.700;23.360;2024-03-06T08:51:47;95243.88;;;14.77;70.96
3096;BME280;1558;42.700;23.360;2024-03-06T08:54:15;95236.78;;;14.92;68.60
3096;BME280;1558;42.700;23.360;2024-03-06T08:56:43;95238.41;;;14.36;67.26
3096;BME280;1558;42.700;23.360;2024-03-06T08:59:12;95244.38;;;14.10;68.17
3096;BME280;1558;42.700;23.360;2024-03-06T09:01:40;95225.56;;;13.82;68.95
3096;BME280;1558;42.700;23.360;2024-03-06T09:04:08;95240.53;;;14.46;68.53
3096;BME280;1558;42.700;23.360;2024-03-06T09:06:38;95239.66;;;14.42;68.30
3096;BME280;1558;42.700;23.360;2024-03-06T09:09:06;95236.72;;;14.50;68.25
3096;BME280;1558;42.700;23.360;2024-03-06T09:11:36;95227.75;;;14.46;67.77
3096;BME280;1558;42.700;23.360;2024-03-06T09:14:04;95237.59;;;14.35;66.75
3096;BME280;1558;42.700;23.360;2024-03-06T09:16:33;95233.81;;;14.78;67.88
3096;BME280;1558;42.700;23.360;2024-03-06T09:19:01;95233.84;;;15.23;66.19
3096;BME280;1558;42.700;23.360;2024-03-06T09:21:29;95237.22;;;15.39;65.86
3096;BME280;1558;42.700;23.360;2024-03-06T09:23:58;95230.53;;;15.56;63.26
3096;BME280;1558;42.700;23.360;2024-03-06T09:26:26;95237.34;;;15.01;63.82
3096;BME280;1558;42.700;23.360;2024-03-06T09:28:55;95229.97;;;15.70;63.87
3096;BME280;1558;42.700;23.360;2024-03-06T09:31:23;95235.19;;;15.55;63.27
3096;BME280;1558;42.700;23.360;2024-03-06T09:33:51;95232.06;;;16.06;62.00
3096;BME280;1558;42.700;23.360;2024-03-06T09:36:19;95229.56;;;15.94;62.00
3096;BME280;1558;42.700;23.360;2024-03-06T09:38:48;95221.47;;;16.27;59.52
3096;BME280;1558;42.700;23.360;2024-03-06T09:41:18;95217.66;;;15.30;60.34
3096;BME280;1558;42.700;23.360;2024-03-06T09:43:46;95218.56;;;14.93;61.75
3096;BME280;1558;42.700;23.360;2024-03-06T09:46:15;95223.28;;;15.18;62.86
3096;BME280;1558;42.700;23.360;2024-03-06T09:48:46;95223.97;;;16.39;62.29
3096;BME280;1558;42.700;23.360;2024-03-06T09:51:14;95210.81;;;16.45;59.39
3096;BME280;1558;42.700;23.360;2024-03-06T09:53:42;95203.38;;;16.12;57.30
3096;BME280;1558;42.700;23.360;2024-03-06T09:56:11;95208.16;;;16.18;57.36
3096;BME280;1558;42.700;23.360;2024-03-06T09:58:41;95210.75;;;16.41;56.74
3096;BME280;1558;42.700;23.360;2024-03-06T10:01:10;95205.94;;;16.27;55.01
3096;BME280;1558;42.700;23.360;2024-03-06T10:03:40;95205.22;;;16.34;56.39
3096;BME280;1558;42.700;23.360;2024-03-06T10:06:09;95201.47;;;16.75;54.84
3096;BME280;1558;42.700;23.360;2024-03-06T10:08:42;95201.22;;;16.87;55.30
3096;BME280;1558;42.700;23.360;2024-03-06T10:11:11;95170.34;;;16.76;53.86
3096;BME280;1558;42.700;23.360;2024-03-06T10:13:41;95190.69;;;16.53;53.23
3096;BME280;1558;42.700;23.360;2024-03-06T10:16:09;95182.19;;;16.58;54.55
3096;BME280;1558;42.700;23.360;2024-03-06T10:18:38;95187.53;;;17.21;53.69
3096;BME280;1558;42.700;23.360;2024-03-06T10:21:06;95174.88;;;17.02;52.78
3096;BME280;1558;42.700;23.360;2024-03-06T10:23:35;95171.28;;;17.35;52.53
3096;BME280;1558;42.700;23.360;2024-03-06T10:26:07;95176.75;;;17.35;51.59
3096;BME280;1558;42.700;23.360;2024-03-06T10:28:35;95166.22;;;17.88;51.26
3096;BME280;1558;42.700;23.360;2024-03-06T10:31:06;95169.81;;;18.02;50.08
3096;BME280;1558;42.700;23.360;2024-03-06T10:33:36;95163.16;;;18.00;49.23
3096;BME280;1558;42.700;23.360;2024-03-06T10:36:05;95159.88;;;17.66;48.91
3096;BME280;1558;42.700;23.360;2024-03-06T10:38:36;95161.13;;;17.32;50.06
3096;BME280;1558;42.700;23.360;2024-03-06T10:41:07;95156.22;;;18.09;49.65
3096;BME280;1558;42.700;23.360;2024-03-06T10:43:43;95129.03;;;18.45;49.00
3096;BME280;1558;42.700;23.360;2024-03-06T10:46:20;95151.81;;;18.70;48.21
3096;BME280;1558;42.700;23.360;2024-03-06T10:48:49;95142.84;;;18.80;47.51
3096;BME280;1558;42.700;23.360;2024-03-06T10:51:18;95142.50;;;18.99;47.41
3096;BME280;1558;42.700;23.360;2024-03-06T10:53:48;95121.38;;;17.85;46.98
3096;BME280;1558;42.700;23.360;2024-03-06T10:56:18;95144.16;;;17.52;47.66
3096;BME280;1558;42.700;23.360;2024-03-06T10:58:50;95135.09;;;17.92;47.42
3096;BME280;1558;42.700;23.360;2024-03-06T11:01:20;95000.06;;;17.65;47.66
3096;BME280;1558;42.700;23.360;2024-03-06T11:03:48;95118.22;;;18.59;46.22
3096;BME280;1558;42.700;23.360;2024-03-06T11:06:17;95116.69;;;18.68;46.50
3096;BME280;1558;42.700;23.360;2024-03-06T11:08:46;95113.53;;;18.66;46.24
3096;BME280;1558;42.700;23.360;2024-03-06T11:11:22;95113.41;;;18.38;45.68
3096;BME280;1558;42.700;23.360;2024-03-06T11:13:54;95104.97;;;19.00;45.77
3096;BME280;1558;42.700;23.360;2024-03-06T11:16:30;95027.63;;;18.50;43.50
3096;BME280;1558;42.700;23.360;2024-03-06T11:19:05;95090.94;;;19.15;44.52
3096;BME280;1558;42.700;23.360;2024-03-06T11:21:34;95098.75;;;19.34;43.14
3096;BME280;1558;42.700;23.360;2024-03-06T11:24:16;95093.22;;;18.71;43.54
3096;BME280;1558;42.700;23.360;2024-03-06T11:26:47;95085.31;;;18.38;43.48
3096;BME280;1558;42.700;23.360;2024-03-06T11:29:16;95075.19;;;18.42;43.61
3096;BME280;1558;42.700;23.360;2024-03-06T11:32:06;95078.38;;;18.51;43.73
3096;BME280;1558;42.700;23.360;2024-03-06T11:34:37;95085.88;;;19.38;43.07
3096;BME280;1558;42.700;23.360;2024-03-06T11:37:06;95072.94;;;19.67;41.65
3096;BME280;1558;42.700;23.360;2024-03-06T11:39:37;95074.53;;;19.36;41.63
3096;BME280;1558;42.700;23.360;2024-03-06T11:42:08;95069.84;;;18.98;42.34
3096;BME280;1558;42.700;23.360;2024-03-06T11:44:37;95074.53;;;18.73;42.58
3096;BME280;1558;42.700;23.360;2024-03-06T11:47:08;95071.00;;;19.11;43.09
3096;BME280;1558;42.700;23.360;2024-03-06T11:49:36;95056.94;;;19.02;41.24
3096;BME280;1558;42.700;23.360;2024-03-06T11:52:07;95068.22;;;18.48;41.40
3096;BME280;1558;42.700;23.360;2024-03-06T11:54:37;95070.78;;;18.05;43.28
3096;BME280;1558;42.700;23.360;2024-03-06T11:57:06;95061.25;;;19.10;42.45
3096;BME280;1558;42.700;23.360;2024-03-06T11:59:36;95044.81;;;18.54;42.54
3096;BME280;1558;42.700;23.360;2024-03-06T12:02:07;95057.84;;;17.85;42.94
3096;BME280;1558;42.700;23.360;2024-03-06T12:04:37;95055.59;;;17.36;43.67
3096;BME280;1558;42.700;23.360;2024-03-06T12:07:06;95062.28;;;16.51;44.94
3096;BME280;1558;42.700;23.360;2024-03-06T12:09:37;95064.25;;;16.13;45.79
3096;BME280;1558;42.700;23.360;2024-03-06T12:12:09;95049.88;;;16.16;46.07
3096;BME280;1558;42.700;23.360;2024-03-06T12:14:39;95049.91;;;16.20;46.56
3096;BME280;1558;42.700;23.360;2024-03-06T12:17:13;95047.25;;;17.11;46.67
3096;BME280;1558;42.700;23.360;2024-03-06T12:19:43;95045.44;;;18.01;45.13
3096;BME280;1558;42.700;23.360;2024-03-06T12:22:12;95050.56;;;18.20;43.38
3096;BME280;1558;42.700;23.360;2024-03-06T12:24:42;95044.25;;;18.02;43.24
3096;BME280;1558;42.700;23.360;2024-03-06T12:27:10;95040.03;;;17.36;43.75
3096;BME280;1558;42.700;23.360;2024-03-06T12:29:40;95052.50;;;16.86;45.11
3096;BME280;1558;42.700;23.360;2024-03-06T12:32:17;95041.38;;;16.21;48.51
3096;BME280;1558;42.700;23.360;2024-03-06T12:34:56;95051.38;;;15.47;51.99
3096;BME280;1558;42.700;23.360;2024-03-06T12:37:28;94987.00;;;14.73;54.62
3096;BME280;1558;42.700;23.360;2024-03-06T12:40:02;95052.53;;;15.20;56.00
3096;BME280;1558;42.700;23.360;2024-03-06T12:42:32;95042.38;;;14.91;57.22
3096;BME280;1558;42.700;23.360;2024-03-06T12:45:00;95044.44;;;14.75;57.92
3096;BME280;1558;42.700;23.360;2024-03-06T12:47:31;95040.28;;;14.58;59.10
3096;BME280;1558;42.700;23.360;2024-03-06T12:50:00;95038.38;;;14.59;59.24
3096;BME280;1558;42.700;23.360;2024-03-06T12:52:28;95047.94;;;14.53;59.33
3096;BME280;1558;42.700;23.360;2024-03-06T12:54:56;95048.03;;;14.56;59.65
3096;BME280;1558;42.700;23.360;2024-03-06T12:57:25;95045.53;;;14.48;59.69
3096;BME280;1558;42.700;23.360;2024-03-06T12:59:54;95033.69;;;14.33;60.00
3096;BME280;1558;42.700;23.360;2024-03-06T13:02:22;95037.63;;;14.16;61.23
3096;BME280;1558;42.700;23.360;2024-03-06T13:04:52;95051.97;;;13.98;61.75
3096;BME280;1558;42.700;23.360;2024-03-06T13:07:20;95047.81;;;14.04;62.44
3096;BME280;1558;42.700;23.360;2024-03-06T13:09:48;95044.03;;;14.08;61.46
3096;BME280;1558;42.700;23.360;2024-03-06T13:12:17;95034.97;;;14.65;61.33
3096;BME280;1558;42.700;23.360;2024-03-06T13:14:46;95040.38;;;15.40;59.85
3096;BME280;1558;42.700;23.360;2024-03-06T13:17:14;95044.44;;;15.83;57.37
3096;BME280;1558;42.700;23.360;2024-03-06T13:19:42;95043.16;;;16.07;56.05
3096;BME280;1558;42.700;23.360;2024-03-06T13:22:12;95054.69;;;16.30;55.30
3096;BME280;1558;42.700;23.360;2024-03-06T13:24:40;94998.94;;;16.13;55.07
3096;BME280;1558;42.700;23.360;2024-03-06T13:27:11;95036.31;;;16.20;55.15
3096;BME280;1558;42.700;23.360;2024-03-06T13:29:39;95044.91;;;15.89;55.24